Time;durP1;ratioP1;P1;durP2;ratioP2;P2;SDS_P1;SDS_P2;PMS_P1;PMS_P2;Temp;Humidity;BMP_temperature;BMP_pressure;BME280_temperature;BME280_humidity;BME280_pressure;Samples;Min_cycle;Max_cycle;Signal;HPM_P1;HPM_P2
2021/12/14 00:01:54;;;;;;;20.93;14.57;;;;;;;;;;5032735;28;20403;-75
2021/12/14 00:04:20;;;;;;;23.37;16.30;;;;;;;;;;5014813;28;20280;-75
2021/12/14 00:06:48;;;;;;;20.10;14.83;;;;;;;;;;5032670;28;20327;-75
2021/12/14 00:09:24;;;;;;;23.53;15.27;;;;;;;;;;5032338;28;20438;-75
2021/12/14 00:12:10;;;;;;;23.13;15.43;;;;;;;;;;5032653;28;20288;-75
2021/12/14 00:17:10;;;;;;;24.10;16.13;;;;;;;;;;5032369;28;19947;-76
2021/12/14 00:19:37;;;;;;;19.83;15.13;;;;;;;;;;5032556;28;20284;-75
2021/12/14 00:22:17;;;;;;;20.93;15.67;;;;;;;;;;5032407;28;20729;-76
2021/12/14 00:24:43;;;;;;;20.20;14.77;;;;;;;;;;5032704;28;20367;-75
2021/12/14 00:27:11;;;;;;;19.93;15.10;;;;;;;;;;5032151;28;20299;-76
2021/12/14 00:29:44;;;;;;;18.83;14.87;;;;;;;;;;5032286;28;20760;-75
2021/12/14 00:32:14;;;;;;;19.73;15.17;;;;;;;;;;5032257;28;20273;-76
2021/12/14 00:34:42;;;;;;;19.77;14.40;;;;;;;;;;5032452;28;20296;-75
2021/12/14 00:37:16;;;;;;;20.77;13.97;;;;;;;;;;5032104;28;20288;-75
2021/12/14 00:39:42;;;;;;;18.20;14.13;;;;;;;;;;5032459;28;20272;-75
2021/12/14 00:42:08;;;;;;;22.00;14.13;;;;;;;;;;5031879;28;20765;-75
2021/12/14 00:44:35;;;;;;;16.20;14.07;;;;;;;;;;5032342;28;20363;-75
2021/12/14 00:47:01;;;;;;;19.17;13.53;;;;;;;;;;5032354;28;20286;-75
2021/12/14 00:49:28;;;;;;;19.03;15.00;;;;;;;;;;5031980;28;20280;-75
2021/12/14 00:51:54;;;;;;;18.37;13.47;;;;;;;;;;5014668;28;20374;-75
2021/12/14 00:54:21;;;;;;;20.70;15.33;;;;;;;;;;5032025;28;20681;-75
2021/12/14 00:56:48;;;;;;;21.57;14.70;;;;;;;;;;5032272;28;20366;-75
2021/12/14 00:59:14;;;;;;;18.53;13.97;;;;;;;;;;5031982;28;20287;-75
2021/12/14 01:01:48;;;;;;;21.70;14.80;;;;;;;;;;5032237;28;20273;-75
2021/12/14 01:04:17;;;;;;;19.90;14.77;;;;;;;;;;5033469;28;20306;-75
2021/12/14 01:06:45;;;;;;;18.70;14.97;;;;;;;;;;5035772;28;20725;-75
2021/12/14 01:09:16;;;;;;;20.00;14.83;;;;;;;;;;5035442;28;20288;-76
2021/12/14 01:11:45;;;;;;;23.33;16.43;;;;;;;;;;5035725;28;20786;-75
2021/12/14 01:14:15;;;;;;;19.13;15.33;;;;;;;;;;5034859;28;20337;-74
2021/12/14 01:16:54;;;;;;;21.23;14.87;;;;;;;;;;5035441;28;20846;-75
2021/12/14 01:19:27;;;;;;;19.53;14.80;;;;;;;;;;5035366;28;20292;-75
2021/12/14 01:25:00;;;;;;;20.07;16.47;;;;;;;;;;5035252;28;20291;-75
2021/12/14 01:27:25;;;;;;;23.13;17.10;;;;;;;;;;5034762;28;20291;-75
2021/12/14 01:29:53;;;;;;;19.97;16.13;;;;;;;;;;5035572;28;20296;-75
2021/12/14 01:32:22;;;;;;;24.17;17.33;;;;;;;;;;5035126;28;20291;-75
2021/12/14 01:34:49;;;;;;;21.70;16.03;;;;;;;;;;5035334;28;20353;-75
2021/12/14 01:37:19;;;;;;;19.93;16.40;;;;;;;;;;5035131;28;20281;-75
2021/12/14 01:40:01;;;;;;;22.73;16.87;;;;;;;;;;5035718;28;20273;-75
2021/12/14 01:42:28;;;;;;;22.00;17.27;;;;;;;;;;5035013;28;20302;-75
2021/12/14 01:44:56;;;;;;;21.57;17.03;;;;;;;;;;5035362;28;20284;-75
2021/12/14 01:47:25;;;;;;;22.50;17.27;;;;;;;;;;5034880;28;20284;-75
2021/12/14 01:49:51;;;;;;;21.17;16.07;;;;;;;;;;5034687;28;20308;-75
2021/12/14 01:52:20;;;;;;;22.43;17.47;;;;;;;;;;5034744;28;20359;-75
2021/12/14 01:54:48;;;;;;;24.63;18.43;;;;;;;;;;5034971;28;20367;-75
2021/12/14 01:57:16;;;;;;;23.80;18.17;;;;;;;;;;5034612;28;20279;-75
2021/12/14 01:59:44;;;;;;;23.30;18.20;;;;;;;;;;5035078;28;20280;-75
2021/12/14 02:02:23;;;;;;;21.90;17.77;;;;;;;;;;5034903;28;20276;-75
2021/12/14 02:04:52;;;;;;;23.13;17.73;;;;;;;;;;5035170;28;20598;-75
2021/12/14 02:07:19;;;;;;;23.50;19.10;;;;;;;;;;5017156;28;20288;-75
2021/12/14 02:09:47;;;;;;;23.60;18.57;;;;;;;;;;5034560;28;20782;-75
2021/12/14 02:12:20;;;;;;;26.07;19.17;;;;;;;;;;5017152;28;20288;-75
2021/12/14 02:14:47;;;;;;;24.10;18.43;;;;;;;;;;5033899;28;20292;-75
2021/12/14 02:17:16;;;;;;;24.77;19.97;;;;;;;;;;5034048;28;20284;-75
2021/12/14 02:19:42;;;;;;;27.73;20.20;;;;;;;;;;5034442;28;20280;-75
2021/12/14 02:22:09;;;;;;;26.10;19.70;;;;;;;;;;5034481;28;20363;-75
2021/12/14 02:24:36;;;;;;;25.43;19.90;;;;;;;;;;5016621;28;20476;-75
2021/12/14 02:27:03;;;;;;;24.83;19.20;;;;;;;;;;5034424;28;20403;-75
2021/12/14 02:29:30;;;;;;;23.80;19.07;;;;;;;;;;5033643;28;20901;-75
2021/12/14 02:32:02;;;;;;;24.50;19.27;;;;;;;;;;5034223;28;20276;-75
2021/12/14 02:34:28;;;;;;;26.33;20.33;;;;;;;;;;5033972;28;20287;-75
2021/12/14 02:36:54;;;;;;;24.83;20.63;;;;;;;;;;5034167;28;20363;-75
2021/12/14 02:42:06;;;;;;;26.50;21.60;;;;;;;;;;5034100;28;20303;-75
2021/12/14 02:44:32;;;;;;;26.10;21.47;;;;;;;;;;5033649;28;20049;-74
2021/12/14 02:47:04;;;;;;;26.17;21.93;;;;;;;;;;5034072;28;20363;-75
2021/12/14 02:49:31;;;;;;;27.70;21.53;;;;;;;;;;5033765;28;20363;-75
2021/12/14 02:52:00;;;;;;;27.87;22.77;;;;;;;;;;5033955;28;20421;-75
2021/12/14 02:54:31;;;;;;;28.47;23.17;;;;;;;;;;5033609;28;20359;-75
2021/12/14 02:56:59;;;;;;;27.27;22.53;;;;;;;;;;5033722;28;20338;-74
2021/12/14 02:59:28;;;;;;;29.60;23.27;;;;;;;;;;5033159;28;20284;-75
2021/12/14 03:01:56;;;;;;;30.20;22.60;;;;;;;;;;5033714;28;20371;-75
2021/12/14 03:04:22;;;;;;;30.10;24.37;;;;;;;;;;5033313;28;20410;-75
2021/12/14 03:06:54;;;;;;;29.20;23.43;;;;;;;;;;5033636;28;20272;-75
2021/12/14 03:12:02;;;;;;;28.77;22.77;;;;;;;;;;5033677;28;20363;-75
2021/12/14 03:14:28;;;;;;;29.33;24.27;;;;;;;;;;5033402;28;20276;-75
2021/12/14 03:16:55;;;;;;;28.23;23.63;;;;;;;;;;5000011;28;20449;-75
2021/12/14 03:19:21;;;;;;;31.33;25.37;;;;;;;;;;5033494;28;20426;-77
2021/12/14 03:21:48;;;;;;;31.07;25.00;;;;;;;;;;5033602;28;20405;-74
2021/12/14 03:24:15;;;;;;;30.80;25.27;;;;;;;;;;5033303;28;20341;-75
2021/12/14 03:26:43;;;;;;;30.07;25.10;;;;;;;;;;5032694;28;20287;-75
2021/12/14 03:29:15;;;;;;;28.37;24.23;;;;;;;;;;5032994;28;20756;-75
2021/12/14 03:31:43;;;;;;;32.97;25.60;;;;;;;;;;5015356;28;20311;-75
2021/12/14 03:34:15;;;;;;;29.13;23.83;;;;;;;;;;5033127;28;20307;-74
2021/12/14 03:36:43;;;;;;;30.37;24.67;;;;;;;;;;5032758;28;20286;-75
2021/12/14 03:39:09;;;;;;;33.17;26.03;;;;;;;;;;5033064;28;20363;-74
2021/12/14 03:41:37;;;;;;;31.30;24.80;;;;;;;;;;5032797;28;20280;-75
2021/12/14 03:44:06;;;;;;;31.37;25.20;;;;;;;;;;5032967;28;20367;-75
2021/12/14 03:46:34;;;;;;;34.50;25.27;;;;;;;;;;5032623;28;20411;-75
2021/12/14 03:49:01;;;;;;;33.50;25.90;;;;;;;;;;5032892;28;20281;-75
2021/12/14 03:51:27;;;;;;;31.17;24.77;;;;;;;;;;5032516;28;20366;-75
2021/12/14 03:53:55;;;;;;;31.20;24.83;;;;;;;;;;5033146;28;20322;-75
2021/12/14 03:56:22;;;;;;;32.63;25.70;;;;;;;;;;5032819;28;20364;-74
2021/12/14 03:58:48;;;;;;;32.63;26.10;;;;;;;;;;5015113;28;20422;-75
2021/12/14 04:01:20;;;;;;;33.77;25.83;;;;;;;;;;5032779;28;20410;-75
2021/12/14 04:03:48;;;;;;;31.67;25.53;;;;;;;;;;5032729;28;20284;-75
2021/12/14 04:06:14;;;;;;;32.67;25.33;;;;;;;;;;5032837;28;20338;-75
2021/12/14 04:08:41;;;;;;;31.70;25.27;;;;;;;;;;5032511;28;20362;-75
2021/12/14 04:11:08;;;;;;;39.07;27.37;;;;;;;;;;5015226;28;20300;-75
2021/12/14 04:13:36;;;;;;;36.40;27.57;;;;;;;;;;5032582;28;20280;-75
2021/12/14 04:16:03;;;;;;;32.47;25.30;;;;;;;;;;5032805;28;20294;-75
2021/12/14 04:18:29;;;;;;;36.73;26.97;;;;;;;;;;5032408;28;20359;-76
2021/12/14 04:20:58;;;;;;;35.57;27.53;;;;;;;;;;5032629;28;20771;-75
2021/12/14 04:23:26;;;;;;;33.23;25.90;;;;;;;;;;5032675;28;20334;-75
2021/12/14 04:25:53;;;;;;;33.07;26.00;;;;;;;;;;5032365;28;20383;-75
2021/12/14 04:28:21;;;;;;;34.40;27.20;;;;;;;;;;5032795;28;20355;-74
2021/12/14 04:30:47;;;;;;;34.53;26.30;;;;;;;;;;5032299;28;20295;-74
2021/12/14 04:33:17;;;;;;;32.73;26.57;;;;;;;;;;5032493;28;20284;-74
2021/12/14 04:35:44;;;;;;;38.30;26.70;;;;;;;;;;5032188;28;20284;-75
2021/12/14 04:38:21;;;;;;;37.70;27.00;;;;;;;;;;5032579;28;20292;-74
2021/12/14 04:51:59;;;;;;;33.57;26.17;;;;;;;;;;5035908;28;20053;-75
2021/12/14 04:54:27;;;;;;;34.33;27.00;;;;;;;;;;5036325;28;20370;-74
2021/12/14 04:56:54;;;;;;;37.33;27.83;;;;;;;;;;5018174;28;20548;-75
2021/12/14 04:59:25;;;;;;;33.23;27.30;;;;;;;;;;5035996;28;20319;-74
2021/12/14 05:01:53;;;;;;;36.63;27.23;;;;;;;;;;5035693;28;20339;-75
2021/12/14 05:04:21;;;;;;;33.90;26.63;;;;;;;;;;5035926;28;20284;-74
2021/12/14 05:06:52;;;;;;;37.50;29.10;;;;;;;;;;5035584;28;20277;-75
2021/12/14 05:09:23;;;;;;;36.73;27.23;;;;;;;;;;5035926;28;20276;-74
2021/12/14 05:11:57;;;;;;;35.77;27.53;;;;;;;;;;5035505;28;20296;-75
2021/12/14 05:14:26;;;;;;;37.27;28.43;;;;;;;;;;5035439;28;20284;-74
2021/12/14 05:16:54;;;;;;;36.33;28.73;;;;;;;;;;5001720;28;20284;-73
2021/12/14 05:19:23;;;;;;;36.03;28.67;;;;;;;;;;5018129;28;20333;-74
2021/12/14 05:21:50;;;;;;;38.97;29.40;;;;;;;;;;5017549;28;20403;-74
2021/12/14 05:24:18;;;;;;;37.63;29.00;;;;;;;;;;5018107;28;20276;-74
2021/12/14 05:26:46;;;;;;;39.00;31.20;;;;;;;;;;5035283;28;20291;-74
2021/12/14 05:29:12;;;;;;;38.70;29.30;;;;;;;;;;5017900;28;20779;-74
2021/12/14 05:31:42;;;;;;;37.67;27.23;;;;;;;;;;5034981;28;20296;-75
2021/12/14 05:34:08;;;;;;;40.67;29.23;;;;;;;;;;5018232;28;20284;-74
2021/12/14 05:36:34;;;;;;;40.30;30.67;;;;;;;;;;5035134;28;20291;-76
2021/12/14 05:39:17;;;;;;;33.90;27.77;;;;;;;;;;5017591;28;20284;-74
2021/12/14 05:44:29;;;;;;;41.40;30.55;;;;;;;;;;5035204;28;20280;-74
2021/12/14 05:46:57;;;;;;;39.63;30.00;;;;;;;;;;5017426;28;20468;-74
2021/12/14 05:49:25;;;;;;;43.57;32.23;;;;;;;;;;5035208;28;20356;-74
2021/12/14 05:51:52;;;;;;;42.70;32.13;;;;;;;;;;5034588;28;20346;-75
2021/12/14 05:54:30;;;;;;;43.03;32.63;;;;;;;;;;5017535;28;20395;-75
2021/12/14 05:56:58;;;;;;;49.47;33.77;;;;;;;;;;5034672;28;20362;-75
2021/12/14 05:59:27;;;;;;;48.73;34.90;;;;;;;;;;5034598;28;20594;-75
2021/12/14 06:01:53;;;;;;;48.43;33.77;;;;;;;;;;5034470;28;20276;-75
2021/12/14 06:04:20;;;;;;;50.73;35.67;;;;;;;;;;5017561;28;20292;-75
2021/12/14 06:06:48;;;;;;;48.10;34.13;;;;;;;;;;5016951;28;20328;-78
2021/12/14 06:09:18;;;;;;;45.30;32.30;;;;;;;;;;5034652;28;20308;-74
2021/12/14 06:11:45;;;;;;;54.20;35.77;;;;;;;;;;5034314;28;20405;-75
2021/12/14 06:14:13;;;;;;;56.80;37.43;;;;;;;;;;5034624;28;20280;-74
2021/12/14 06:16:39;;;;;;;48.40;34.30;;;;;;;;;;5034293;28;20327;-76
2021/12/14 06:19:13;;;;;;;48.77;36.53;;;;;;;;;;5034499;28;20379;-78
2021/12/14 06:21:40;;;;;;;48.10;35.17;;;;;;;;;;5034102;28;20285;-76
2021/12/14 06:24:07;;;;;;;51.40;35.40;;;;;;;;;;5034820;28;20375;-72
2021/12/14 06:26:37;;;;;;;58.17;35.60;;;;;;;;;;5034097;28;20776;-72
2021/12/14 06:29:05;;;;;;;58.53;38.60;;;;;;;;;;5016463;28;20303;-73
2021/12/14 06:31:31;;;;;;;57.90;38.33;;;;;;;;;;5034205;28;20304;-72
2021/12/14 06:33:57;;;;;;;55.57;38.33;;;;;;;;;;5016534;28;20324;-72
2021/12/14 06:36:51;;;;;;;62.77;39.43;;;;;;;;;;5016528;28;20359;-73
2021/12/14 06:39:18;;;;;;;63.43;39.00;;;;;;;;;;5034445;28;20629;-75
2021/12/14 06:41:44;;;;;;;61.73;37.93;;;;;;;;;;5033834;28;20329;-85
2021/12/14 06:44:10;;;;;;;60.50;38.10;;;;;;;;;;5016743;28;20310;-78
2021/12/14 06:46:38;;;;;;;65.80;41.17;;;;;;;;;;5016475;28;20280;-74
2021/12/14 06:49:12;;;;;;;60.93;38.50;;;;;;;;;;5033332;28;20338;-75
2021/12/14 06:51:46;;;;;;;60.90;40.27;;;;;;;;;;5033360;28;20322;-75
2021/12/14 06:54:14;;;;;;;65.40;40.40;;;;;;;;;;5033961;28;20290;-75
2021/12/14 06:56:40;;;;;;;67.97;41.67;;;;;;;;;;5033938;28;20829;-75
2021/12/14 06:59:11;;;;;;;59.27;39.17;;;;;;;;;;5033617;28;20337;-75
2021/12/14 07:01:38;;;;;;;57.43;37.37;;;;;;;;;;5033401;28;20276;-75
2021/12/14 07:04:07;;;;;;;64.77;40.43;;;;;;;;;;5033605;28;20345;-75
2021/12/14 07:06:35;;;;;;;60.03;38.43;;;;;;;;;;5016091;28;20295;-75
2021/12/14 07:09:12;;;;;;;65.53;40.30;;;;;;;;;;5033491;28;20323;-75
2021/12/14 07:11:40;;;;;;;62.87;39.13;;;;;;;;;;5033890;28;20471;-75
2021/12/14 07:14:15;;;;;;;62.83;38.50;;;;;;;;;;5033378;28;20286;-75
2021/12/14 07:16:46;;;;;;;65.40;41.53;;;;;;;;;;5033852;28;20268;-75
2021/12/14 07:19:12;;;;;;;60.43;38.87;;;;;;;;;;5034215;28;20076;-75
2021/12/14 07:21:49;;;;;;;57.23;38.30;;;;;;;;;;5033608;28;20359;-75
2021/12/14 07:24:22;;;;;;;64.63;41.40;;;;;;;;;;5033514;28;20502;-75
2021/12/14 07:27:11;;;;;;;64.63;38.90;;;;;;;;;;5033235;28;20342;-75
2021/12/14 07:29:37;;;;;;;61.87;40.33;;;;;;;;;;5016015;28;20760;-74
2021/12/14 07:32:04;;;;;;;65.77;41.80;;;;;;;;;;5033091;28;20675;-75
2021/12/14 07:34:30;;;;;;;66.50;41.97;;;;;;;;;;5033314;28;20280;-74
2021/12/14 07:36:56;;;;;;;65.67;41.33;;;;;;;;;;5015702;28;20319;-75
2021/12/14 07:39:23;;;;;;;62.87;39.67;;;;;;;;;;5033244;28;20280;-75
2021/12/14 07:41:50;;;;;;;63.30;41.50;;;;;;;;;;5015632;28;20284;-74
2021/12/14 07:44:18;;;;;;;59.80;39.87;;;;;;;;;;5033408;28;20292;-75
2021/12/14 07:46:46;;;;;;;66.97;41.67;;;;;;;;;;5033150;28;20288;-75
2021/12/14 07:49:21;;;;;;;67.13;39.83;;;;;;;;;;5032970;28;20342;-74
2021/12/14 07:51:48;;;;;;;69.20;40.63;;;;;;;;;;5033048;28;20357;-74
2021/12/14 07:54:16;;;;;;;66.20;39.30;;;;;;;;;;5033096;28;20056;-74
2021/12/14 07:56:47;;;;;;;67.17;41.23;;;;;;;;;;5015842;28;20677;-74
2021/12/14 07:59:16;;;;;;;63.40;38.47;;;;;;;;;;5032974;28;20624;-75
2021/12/14 08:01:42;;;;;;;65.23;40.77;;;;;;;;;;5033043;28;20342;-74
2021/12/14 08:04:11;;;;;;;65.70;42.03;;;;;;;;;;5032814;28;21117;-74
2021/12/14 08:06:51;;;;;;;71.77;43.13;;;;;;;;;;5032953;28;20288;-74
2021/12/14 08:09:20;;;;;;;68.00;41.53;;;;;;;;;;5033273;28;20280;-74
2021/12/14 08:11:47;;;;;;;65.67;38.83;;;;;;;;;;5032975;28;20300;-74
2021/12/14 08:14:17;;;;;;;66.47;40.87;;;;;;;;;;5034336;28;20284;-73
2021/12/14 08:16:45;;;;;;;64.23;40.83;;;;;;;;;;5037132;28;20338;-74
2021/12/14 08:19:16;;;;;;;64.80;40.87;;;;;;;;;;5036816;28;20784;-74
2021/12/14 08:21:44;;;;;;;65.77;39.63;;;;;;;;;;5036976;28;20281;-74
2021/12/14 08:24:10;;;;;;;55.73;36.93;;;;;;;;;;5036677;28;20774;-74
2021/12/14 08:26:45;;;;;;;57.00;37.73;;;;;;;;;;5037049;28;20316;-74
2021/12/14 08:29:17;;;;;;;61.40;38.97;;;;;;;;;;5036669;28;20395;-74
2021/12/14 08:31:45;;;;;;;59.90;38.97;;;;;;;;;;5036680;28;20042;-74
2021/12/14 08:34:13;;;;;;;59.43;36.90;;;;;;;;;;5036547;28;20284;-74
2021/12/14 08:36:44;;;;;;;63.97;38.53;;;;;;;;;;5036849;28;20286;-74
2021/12/14 08:39:12;;;;;;;61.47;39.47;;;;;;;;;;5036534;28;20280;-74
2021/12/14 08:41:46;;;;;;;59.97;38.53;;;;;;;;;;5036612;28;20323;-74
2021/12/14 08:44:15;;;;;;;62.13;39.13;;;;;;;;;;5036426;28;20308;-74
2021/12/14 08:46:42;;;;;;;57.70;36.80;;;;;;;;;;5036455;28;20291;-75
2021/12/14 08:49:15;;;;;;;57.10;36.90;;;;;;;;;;5036133;28;20280;-75
2021/12/14 08:51:44;;;;;;;58.37;37.53;;;;;;;;;;5036472;28;20756;-74
2021/12/14 08:54:21;;;;;;;63.93;38.07;;;;;;;;;;5036123;28;20295;-75
2021/12/14 08:56:51;;;;;;;67.87;39.03;;;;;;;;;;5036346;28;20288;-75
2021/12/14 08:59:17;;;;;;;64.47;38.97;;;;;;;;;;5036056;28;20280;-75
2021/12/14 09:01:44;;;;;;;68.23;38.50;;;;;;;;;;5036173;28;20311;-75
2021/12/14 09:04:36;;;;;;;68.07;37.27;;;;;;;;;;5036023;28;20307;-75
2021/12/14 09:07:05;;;;;;;63.00;37.43;;;;;;;;;;5032910;28;20288;-75
2021/12/14 09:09:31;;;;;;;75.73;40.50;;;;;;;;;;5036296;28;20691;-75
2021/12/14 09:12:01;;;;;;;71.73;41.20;;;;;;;;;;5035719;28;20318;-75
2021/12/14 09:14:28;;;;;;;67.73;37.17;;;;;;;;;;5018482;28;20292;-74
2021/12/14 09:16:57;;;;;;;68.03;39.50;;;;;;;;;;5035742;28;20756;-74
2021/12/14 09:19:32;;;;;;;67.37;39.07;;;;;;;;;;5035894;28;20282;-75
2021/12/14 09:22:00;;;;;;;68.68;41.95;;;;;;;;;;5035747;28;20279;-75
2021/12/14 09:24:27;;;;;;;64.80;38.80;;;;;;;;;;5035762;28;20057;-75
2021/12/14 09:26:56;;;;;;;61.80;38.87;;;;;;;;;;5035745;28;20302;-75
2021/12/14 09:29:23;;;;;;;68.93;41.37;;;;;;;;;;5035580;28;20276;-75
2021/12/14 09:31:50;;;;;;;69.33;39.73;;;;;;;;;;5018046;28;20304;-75
2021/12/14 09:34:18;;;;;;;71.10;39.03;;;;;;;;;;5035431;28;20287;-75
2021/12/14 09:36:45;;;;;;;78.77;40.63;;;;;;;;;;5035580;28;20316;-75
2021/12/14 09:39:19;;;;;;;74.77;38.57;;;;;;;;;;5035346;28;20358;-75
2021/12/14 09:41:46;;;;;;;76.33;40.87;;;;;;;;;;5018125;28;20346;-75
2021/12/14 09:44:16;;;;;;;71.60;39.43;;;;;;;;;;5035240;28;20783;-75
2021/12/14 09:46:43;;;;;;;67.50;37.67;;;;;;;;;;5035714;28;20787;-75
2021/12/14 09:49:10;;;;;;;77.67;40.67;;;;;;;;;;5035294;28;20280;-75
2021/12/14 09:51:44;;;;;;;75.37;39.50;;;;;;;;;;5035268;28;20339;-75
2021/12/14 09:54:17;;;;;;;73.53;38.70;;;;;;;;;;5035149;28;20284;-75
2021/12/14 09:56:46;;;;;;;75.60;38.80;;;;;;;;;;5035476;28;20363;-75
2021/12/14 09:59:12;;;;;;;70.90;36.57;;;;;;;;;;5034937;28;20346;-75
2021/12/14 10:01:41;;;;;;;72.13;37.60;;;;;;;;;;5035604;28;20795;-75
2021/12/14 10:04:13;;;;;;;70.13;37.57;;;;;;;;;;5034926;28;20290;-75
2021/12/14 10:06:39;;;;;;;77.40;36.20;;;;;;;;;;5034758;28;20879;-75
2021/12/14 10:09:09;;;;;;;75.53;36.93;;;;;;;;;;5034809;28;20315;-76
2021/12/14 10:14:14;;;;;;;71.23;36.50;;;;;;;;;;5034801;28;20598;-76
2021/12/14 10:16:40;;;;;;;70.20;36.07;;;;;;;;;;5035128;28;20343;-75
2021/12/14 10:19:10;;;;;;;69.17;36.37;;;;;;;;;;5034558;28;20280;-76
2021/12/14 10:21:56;;;;;;;74.57;37.03;;;;;;;;;;5034749;28;20311;-75
2021/12/14 10:24:22;;;;;;;74.73;36.07;;;;;;;;;;5034552;28;20284;-75
2021/12/14 10:26:52;;;;;;;69.53;33.77;;;;;;;;;;5034643;28;20277;-75
2021/12/14 10:29:19;;;;;;;72.03;34.87;;;;;;;;;;5034383;28;20644;-75
2021/12/14 10:31:49;;;;;;;70.00;35.27;;;;;;;;;;5034503;28;20292;-75
2021/12/14 10:34:18;;;;;;;71.70;35.33;;;;;;;;;;5034292;28;20288;-75
2021/12/14 10:36:47;;;;;;;68.73;34.67;;;;;;;;;;5033574;28;20287;-75
2021/12/14 10:44:31;;;;;;;61.30;31.73;;;;;;;;;;5034049;28;20276;-75
2021/12/14 10:46:57;;;;;;;64.03;30.90;;;;;;;;;;5034508;28;20291;-75
2021/12/14 10:49:25;;;;;;;65.17;29.83;;;;;;;;;;5033958;28;20280;-75
2021/12/14 10:51:53;;;;;;;63.27;30.40;;;;;;;;;;5016434;28;20340;-75
2021/12/14 10:54:20;;;;;;;60.53;28.03;;;;;;;;;;5033889;28;20284;-75
2021/12/14 10:56:48;;;;;;;63.73;28.13;;;;;;;;;;5033973;28;20290;-74
2021/12/14 10:59:15;;;;;;;56.73;28.67;;;;;;;;;;5033724;28;20284;-75
2021/12/14 11:01:49;;;;;;;62.93;27.87;;;;;;;;;;5033971;28;20287;-75
2021/12/14 11:04:16;;;;;;;60.03;30.23;;;;;;;;;;5033796;28;20730;-75
2021/12/14 11:06:45;;;;;;;53.00;27.00;;;;;;;;;;5033989;28;20335;-75
2021/12/14 11:12:07;;;;;;;51.97;27.25;;;;;;;;;;5033673;28;20427;-75
2021/12/14 11:14:37;;;;;;;59.83;26.50;;;;;;;;;;5033852;28;20072;-74
2021/12/14 11:19:50;;;;;;;59.70;27.13;;;;;;;;;;5033608;28;20284;-75
2021/12/14 11:22:26;;;;;;;53.90;26.70;;;;;;;;;;5033472;28;20637;-75
2021/12/14 11:24:52;;;;;;;;;;;;;;;;;;5033968;28;20375;-75
2021/12/14 11:27:20;;;;;;;56.87;27.67;;;;;;;;;;5033276;28;20016;-75
2021/12/14 11:29:50;;;;;;;53.77;27.63;;;;;;;;;;5016146;28;20672;-74
2021/12/14 11:32:18;;;;;;;49.00;25.63;;;;;;;;;;5033359;28;20656;-75
2021/12/14 11:34:45;;;;;;;57.37;26.93;;;;;;;;;;5033377;28;20446;-75
2021/12/14 11:37:16;;;;;;;56.07;28.10;;;;;;;;;;5033232;28;20442;-75
2021/12/14 11:39:47;;;;;;;52.87;25.73;;;;;;;;;;5033472;28;20327;-75
2021/12/14 11:42:19;;;;;;;55.23;26.93;;;;;;;;;;5033074;28;20370;-75
2021/12/14 11:44:51;;;;;;;52.57;28.03;;;;;;;;;;5033223;28;20287;-74
2021/12/14 11:47:41;;;;;;;51.97;27.17;;;;;;;;;;5032733;28;20363;-75
2021/12/14 11:50:17;;;;;;;49.63;24.80;;;;;;;;;;5033176;28;20693;-75
2021/12/14 11:52:55;;;;;;;48.28;25.10;;;;;;;;;;5033143;28;20371;-75
2021/12/14 11:55:33;;;;;;;51.10;26.43;;;;;;;;;;5032984;28;20049;-74
2021/12/14 11:58:09;;;;;;;45.53;24.63;;;;;;;;;;5015632;28;20296;-74
2021/12/14 12:00:37;;;;;;;48.23;26.13;;;;;;;;;;5032877;28;20348;-75
2021/12/14 12:03:26;;;;;;;51.57;25.13;;;;;;;;;;5033120;28;20363;-74
2021/12/14 12:06:00;;;;;;;51.20;25.50;;;;;;;;;;5024660;28;20316;-75
2021/12/14 12:11:12;;;;;;;44.43;23.30;;;;;;;;;;5032700;28;20342;-75
2021/12/14 12:13:40;;;;;;;43.70;21.73;;;;;;;;;;5032825;28;20288;-74
2021/12/14 12:16:14;;;;;;;53.23;23.77;;;;;;;;;;5032583;28;20371;-74
2021/12/14 12:19:00;;;;;;;47.70;22.23;;;;;;;;;;5033501;28;20340;-74
2021/12/14 12:21:27;;;;;;;41.83;21.33;;;;;;;;;;5032476;28;20809;-74
2021/12/14 12:23:53;;;;;;;45.37;23.47;;;;;;;;;;5032775;28;20342;-74
2021/12/14 12:26:25;;;;;;;46.57;23.40;;;;;;;;;;5032582;28;20280;-74
2021/12/14 12:28:51;;;;;;;50.43;24.00;;;;;;;;;;5032954;28;20284;-74
2021/12/14 12:31:20;;;;;;;52.73;25.27;;;;;;;;;;5032502;28;20307;-75
2021/12/14 12:33:53;;;;;;;46.03;24.23;;;;;;;;;;5032627;28;20760;-75
2021/12/14 12:36:20;;;;;;;55.73;24.90;;;;;;;;;;5032524;28;20640;-75
2021/12/14 12:38:53;;;;;;;53.37;27.17;;;;;;;;;;5032624;28;20284;-74
2021/12/14 12:41:49;;;;;;;50.47;25.97;;;;;;;;;;5032044;28;20295;-75
2021/12/14 12:44:21;;;;;;;60.78;28.70;;;;;;;;;;5020027;28;20807;-74
2021/12/14 12:46:55;;;;;;;56.13;27.87;;;;;;;;;;5032476;28;20061;-75
2021/12/14 12:49:23;;;;;;;56.78;27.92;;;;;;;;;;5032375;28;20363;-75
2021/12/14 12:52:04;;;;;;;59.83;27.30;;;;;;;;;;5032129;28;20520;-75
2021/12/14 12:54:36;;;;;;;52.73;26.30;;;;;;;;;;5032253;28;20780;-75
2021/12/14 12:57:09;;;;;;;56.57;27.77;;;;;;;;;;5032383;28;20706;-75
2021/12/14 12:59:43;;;;;;;54.97;25.93;;;;;;;;;;5032939;28;20288;-75
2021/12/14 13:02:14;;;;;;;53.23;25.07;;;;;;;;;;5036349;28;20689;-75
2021/12/14 13:04:41;;;;;;;59.33;29.70;;;;;;;;;;5035885;28;20320;-75
2021/12/14 13:07:09;;;;;;;55.07;28.20;;;;;;;;;;5036117;28;20280;-75
2021/12/14 13:09:54;;;;;;;59.60;28.73;;;;;;;;;;5035713;28;20288;-75
2021/12/14 13:13:00;;;;;;;55.95;28.58;;;;;;;;;;5035704;28;20387;-75
2021/12/14 13:15:27;;;;;;;56.03;27.13;;;;;;;;;;4974317;28;20094;-75
2021/12/14 13:18:12;;;;;;;52.83;25.63;;;;;;;;;;4974880;28;20059;-74
2021/12/14 13:20:38;;;;;;;57.53;25.33;;;;;;;;;;5012232;28;20402;-74
2021/12/14 13:23:04;;;;;;;46.63;23.33;;;;;;;;;;5035867;28;20330;-74
2021/12/14 13:25:38;;;;;;;46.43;24.00;;;;;;;;;;5035524;28;20367;-74
2021/12/14 13:28:04;;;;;;;41.77;22.53;;;;;;;;;;5035657;28;20783;-74
2021/12/14 13:30:31;;;;;;;45.63;23.07;;;;;;;;;;5035430;28;20415;-74
2021/12/14 13:32:57;;;;;;;35.43;20.47;;;;;;;;;;5035730;28;20280;-74
2021/12/14 13:35:31;;;;;;;39.90;21.00;;;;;;;;;;5018046;28;20295;-73
2021/12/14 13:38:03;;;;;;;38.50;19.83;;;;;;;;;;5035572;28;20447;-73
2021/12/14 13:40:31;;;;;;;41.13;21.07;;;;;;;;;;5035206;28;20272;-74
2021/12/14 13:43:12;;;;;;;45.90;22.53;;;;;;;;;;5035438;28;20287;-74
2021/12/14 13:45:41;;;;;;;45.17;22.57;;;;;;;;;;5035175;28;20316;-74
2021/12/14 13:48:08;;;;;;;44.47;21.10;;;;;;;;;;5035034;28;20792;-74
2021/12/14 13:50:36;;;;;;;39.80;21.27;;;;;;;;;;5034554;28;20314;-74
2021/12/14 13:53:03;;;;;;;43.00;20.20;;;;;;;;;;5035259;28;20296;-74
2021/12/14 13:55:31;;;;;;;36.40;18.77;;;;;;;;;;5035083;28;20280;-74
2021/12/14 13:58:03;;;;;;;37.33;18.77;;;;;;;;;;5035352;28;20621;-74
2021/12/14 14:00:32;;;;;;;49.23;21.53;;;;;;;;;;5034972;28;20308;-74
2021/12/14 14:02:59;;;;;;;40.87;20.70;;;;;;;;;;5035036;28;20280;-73
2021/12/14 14:05:25;;;;;;;36.77;18.80;;;;;;;;;;5034861;28;20363;-74
2021/12/14 14:07:56;;;;;;;34.40;18.20;;;;;;;;;;5035057;28;20752;-74
2021/12/14 14:10:23;;;;;;;35.83;17.77;;;;;;;;;;5017359;28;20300;-74
2021/12/14 14:12:54;;;;;;;40.60;18.73;;;;;;;;;;5035117;28;20276;-73
2021/12/14 14:15:24;;;;;;;34.53;17.27;;;;;;;;;;5034867;28;20296;-73
2021/12/14 14:17:53;;;;;;;29.60;15.40;;;;;;;;;;5034789;28;20288;-74
2021/12/14 14:20:22;;;;;;;26.63;15.37;;;;;;;;;;5034832;28;20277;-74
2021/12/14 14:22:49;;;;;;;30.77;17.13;;;;;;;;;;5017053;28;20288;-74
2021/12/14 14:25:26;;;;;;;31.03;17.47;;;;;;;;;;5017217;28;20292;-74
2021/12/14 14:27:54;;;;;;;33.23;16.37;;;;;;;;;;5034610;28;20285;-75
2021/12/14 14:30:35;;;;;;;31.30;16.10;;;;;;;;;;5034481;28;20291;-74
2021/12/14 14:33:19;;;;;;;28.70;15.63;;;;;;;;;;5016986;28;20292;-75
2021/12/14 14:35:51;;;;;;;34.20;18.00;;;;;;;;;;5034277;28;20885;-74
2021/12/14 14:38:26;;;;;;;37.87;18.37;;;;;;;;;;5034832;28;20283;-74
2021/12/14 14:40:57;;;;;;;28.83;15.70;;;;;;;;;;5034462;28;20355;-74
2021/12/14 14:43:43;;;;;;;32.70;17.67;;;;;;;;;;5034239;28;20505;-75
2021/12/14 14:46:09;;;;;;;33.53;17.70;;;;;;;;;;5016466;28;20280;-74
2021/12/14 14:48:36;;;;;;;30.03;16.23;;;;;;;;;;5033951;28;20280;-74
2021/12/14 14:51:02;;;;;;;30.97;14.90;;;;;;;;;;5034005;28;20302;-74
2021/12/14 14:53:32;;;;;;;30.73;16.40;;;;;;;;;;5033891;28;20363;-74
2021/12/14 14:55:59;;;;;;;29.23;15.50;;;;;;;;;;5034188;28;20288;-74
2021/12/14 14:58:33;;;;;;;32.10;16.97;;;;;;;;;;5033921;28;20284;-74
2021/12/14 15:01:02;;;;;;;30.25;16.52;;;;;;;;;;5034112;28;20291;-74
2021/12/14 15:03:30;;;;;;;28.27;15.53;;;;;;;;;;5033793;28;20045;-75
2021/12/14 15:06:02;;;;;;;24.27;14.70;;;;;;;;;;5033517;28;20791;-74
2021/12/14 15:08:32;;;;;;;26.30;14.93;;;;;;;;;;5033856;28;20283;-73
2021/12/14 15:11:01;;;;;;;23.00;14.47;;;;;;;;;;5033982;28;20387;-73
2021/12/14 15:13:43;;;;;;;27.37;13.73;;;;;;;;;;5033697;28;20287;-74
2021/12/14 15:16:17;;;;;;;30.50;15.37;;;;;;;;;;5033782;28;20680;-73